createdAt,value
2023-10-23T00:04:48.322Z,1.98
2023-10-23T00:09:51.399Z,1.80
2023-10-23T00:14:54.108Z,2.30
2023-10-23T00:19:57.050Z,1.73
2023-10-23T00:24:59.852Z,1.80
2023-10-23T00:30:02.752Z,2.00
2023-10-23T00:35:07.126Z,1.63
2023-10-23T00:40:09.978Z,2.28
2023-10-23T00:45:12.722Z,1.87
2023-10-23T00:50:16.998Z,1.83
2023-10-23T00:55:19.740Z,2.08
2023-10-23T01:00:22.980Z,2.30
2023-10-23T01:05:25.801Z,2.08
2023-10-23T01:10:28.672Z,2.07
2023-10-23T01:15:31.395Z,2.25
2023-10-23T01:20:34.749Z,1.88
2023-10-23T01:25:37.713Z,2.30
2023-10-23T01:30:41.876Z,2.45
2023-10-23T01:35:44.723Z,2.13
2023-10-23T01:40:47.402Z,1.92
2023-10-23T01:45:51.137Z,2.20
2023-10-23T01:50:54.360Z,2.07
2023-10-23T01:55:57.244Z,2.10
2023-10-23T02:01:00.169Z,1.80
2023-10-23T02:06:02.783Z,2.53
2023-10-23T02:11:05.544Z,1.90
2023-10-23T02:16:08.725Z,2.23
2023-10-23T02:21:11.846Z,2.20
2023-10-23T02:26:15.992Z,2.10
2023-10-23T02:31:19.018Z,2.03
2023-10-23T02:36:21.756Z,2.28
2023-10-23T02:41:29.288Z,2.07
2023-10-23T02:46:35.953Z,1.90
2023-10-23T02:51:39.813Z,1.77
2023-10-23T02:56:42.801Z,2.08
2023-10-23T03:01:45.868Z,2.00
2023-10-23T03:06:48.754Z,2.03
2023-10-23T03:11:51.525Z,2.50
2023-10-23T03:16:54.201Z,1.73
2023-10-23T03:21:57.744Z,1.88
2023-10-23T03:27:00.782Z,1.60
2023-10-23T03:32:03.622Z,1.93
2023-10-23T03:37:06.392Z,2.00
2023-10-23T03:42:12.181Z,1.87
2023-10-23T03:47:15.011Z,1.75
2023-10-23T03:52:18.361Z,1.90
2023-10-23T03:57:21.123Z,1.83
2023-10-23T04:02:23.966Z,1.60
2023-10-23T04:07:26.712Z,1.60
2023-10-23T04:12:29.462Z,1.60
2023-10-23T04:17:32.531Z,1.83
2023-10-23T04:22:35.649Z,2.20
2023-10-23T04:27:38.436Z,2.33
2023-10-23T04:32:41.059Z,1.90
2023-10-23T04:37:43.814Z,1.85
2023-10-23T04:42:46.386Z,1.75
2023-10-23T04:47:49.122Z,1.90
2023-10-23T04:52:51.758Z,1.70
2023-10-23T04:57:54.488Z,1.63
2023-10-23T05:02:57.803Z,1.67
2023-10-23T05:08:01.520Z,1.63
2023-10-23T05:13:04.955Z,1.43
2023-10-23T05:18:07.812Z,1.67
2023-10-23T05:23:10.931Z,1.90
2023-10-23T05:28:13.907Z,1.77
2023-10-23T05:33:16.606Z,1.75
2023-10-23T05:38:19.527Z,1.87
2023-10-23T05:43:23.850Z,1.90
2023-10-23T05:48:26.934Z,1.90
2023-10-23T05:53:30.114Z,1.98
2023-10-23T05:58:34.098Z,1.77
2023-10-23T06:03:37.864Z,1.73
2023-10-23T06:08:41.625Z,1.75
2023-10-23T06:13:44.482Z,2.57
2023-10-23T06:18:47.482Z,2.15
2023-10-23T06:23:50.513Z,2.38
2023-10-23T06:28:53.764Z,2.03
2023-10-23T06:33:56.918Z,2.40
2023-10-23T06:39:00.520Z,2.60
2023-10-23T06:44:03.438Z,3.03
2023-10-23T06:49:06.520Z,2.83
2023-10-23T06:54:09.819Z,2.70
2023-10-23T06:59:13.446Z,4.10
2023-10-23T07:04:16.290Z,5.03
2023-10-23T07:09:19.196Z,4.75
2023-10-23T07:14:22.502Z,4.60
2023-10-23T07:19:25.505Z,5.00
2023-10-23T07:24:28.301Z,4.63
2023-10-23T07:29:31.907Z,4.80
2023-10-23T07:34:34.922Z,4.47
2023-10-23T07:39:37.963Z,5.95
2023-10-23T07:44:41.051Z,3.70
2023-10-23T07:49:45.288Z,3.83
2023-10-23T07:54:48.576Z,2.67
2023-10-23T07:59:52.860Z,2.33
2023-10-23T08:04:57.611Z,2.30
2023-10-23T08:10:00.529Z,2.00
2023-10-23T08:15:03.924Z,2.33
2023-10-23T08:20:07.595Z,2.30
2023-10-23T08:25:10.772Z,1.90
2023-10-23T08:30:14.129Z,2.30
2023-10-23T08:35:18.156Z,1.80
2023-10-23T08:40:21.512Z,1.65
2023-10-23T08:45:24.629Z,1.80
2023-10-23T08:50:27.748Z,1.80
2023-10-23T08:55:31.884Z,2.08
2023-10-23T09:00:35.231Z,2.60
2023-10-23T09:05:38.123Z,2.53
2023-10-23T09:10:59.969Z,2.60
2023-10-23T09:16:03.027Z,2.20
2023-10-23T09:21:06.255Z,2.40
2023-10-23T09:26:09.302Z,2.40
2023-10-23T09:31:14.290Z,2.70
2023-10-23T09:36:18.092Z,2.43
2023-10-23T09:41:20.994Z,2.00
2023-10-23T09:46:27.201Z,2.20
2023-10-23T09:51:33.599Z,2.27
2023-10-23T09:56:39.959Z,2.85
2023-10-23T10:01:44.186Z,2.90
2023-10-23T10:06:49.747Z,2.85
2023-10-23T10:11:56.277Z,2.50
2023-10-23T10:16:59.538Z,2.40
2023-10-23T10:22:16.605Z,2.40
2023-10-23T10:27:19.870Z,2.10
2023-10-23T10:32:25.225Z,2.20
2023-10-23T10:37:31.740Z,2.08
2023-10-23T10:42:38.380Z,2.20
2023-10-23T10:47:50.762Z,2.20
2023-10-23T10:52:54.085Z,2.00
2023-10-23T10:57:58.623Z,2.30
2023-10-23T11:03:01.708Z,2.30
2023-10-23T11:08:05.285Z,2.20
2023-10-23T11:13:08.421Z,2.17
2023-10-23T11:18:11.603Z,2.40
2023-10-23T11:23:18.646Z,2.13
2023-10-23T11:28:22.742Z,2.22
2023-10-23T11:33:25.733Z,2.20
2023-10-23T11:38:28.573Z,2.10
2023-10-23T11:43:31.359Z,1.73
2023-10-23T11:48:34.271Z,1.92
2023-10-23T11:53:37.196Z,2.00
2023-10-23T11:58:40.203Z,2.00
2023-10-23T12:03:43.159Z,1.95
2023-10-23T12:08:46.267Z,1.70
2023-10-23T12:13:49.231Z,1.48
2023-10-23T12:18:52.327Z,1.77
2023-10-23T12:23:55.741Z,1.60
2023-10-23T12:28:59.517Z,1.70
2023-10-23T12:34:03.042Z,1.80
2023-10-23T12:39:07.773Z,1.40
2023-10-23T12:44:10.731Z,1.20
2023-10-23T12:49:13.738Z,1.30
2023-10-23T12:54:16.688Z,1.40
2023-10-23T12:59:20.077Z,1.53
2023-10-23T13:04:25.116Z,1.52
2023-10-23T13:09:28.909Z,1.48
2023-10-23T13:14:31.907Z,1.47
2023-10-23T13:19:34.758Z,1.60
2023-10-23T13:24:37.630Z,1.90
2023-10-23T13:29:41.038Z,1.75
2023-10-23T13:34:45.299Z,1.48
2023-10-23T13:39:49.855Z,1.50
2023-10-23T13:44:52.970Z,1.75
2023-10-23T13:49:58.805Z,1.53
2023-10-23T13:55:01.933Z,1.35
2023-10-23T14:00:05.527Z,1.10
2023-10-23T14:05:14.417Z,1.40
2023-10-23T14:10:21.022Z,1.58
2023-10-23T14:15:25.450Z,1.60
2023-10-23T14:20:29.657Z,1.45
2023-10-23T14:25:32.557Z,1.40
2023-10-23T14:30:35.621Z,1.40
2023-10-23T14:35:39.087Z,1.45
2023-10-23T14:40:42.493Z,1.30
2023-10-23T14:45:45.549Z,1.45
2023-10-23T14:50:52.202Z,1.60
2023-10-23T14:55:56.037Z,1.27
2023-10-23T15:00:59.419Z,1.42
2023-10-23T15:06:09.606Z,1.70
2023-10-23T15:11:16.565Z,1.63
2023-10-23T15:16:19.619Z,1.55
2023-10-23T15:21:23.837Z,1.40
2023-10-23T15:26:27.222Z,1.60
2023-10-23T15:31:32.576Z,1.63
2023-10-23T15:36:35.596Z,1.80
2023-10-23T15:41:38.979Z,2.20
2023-10-23T15:46:41.949Z,1.90
2023-10-23T15:51:45.075Z,2.22
2023-10-23T15:56:48.294Z,2.50
2023-10-23T16:01:53.574Z,1.95
2023-10-23T16:06:56.735Z,2.10
2023-10-23T16:12:10.386Z,2.10
2023-10-23T16:17:13.876Z,2.20
2023-10-23T16:22:16.860Z,2.03
2023-10-23T16:27:19.896Z,2.70
2023-10-23T16:32:23.426Z,2.72
2023-10-23T16:37:30.606Z,2.70
2023-10-23T16:42:33.933Z,2.67
2023-10-23T16:47:37.665Z,2.50
2023-10-23T16:52:40.707Z,2.58
2023-10-23T16:57:45.449Z,2.30
2023-10-23T17:02:48.570Z,2.30
2023-10-23T17:07:54.428Z,2.30
2023-10-23T17:12:57.551Z,2.40
2023-10-23T17:18:01.089Z,2.50
2023-10-23T17:23:05.133Z,2.70
2023-10-23T17:28:09.780Z,2.57
2023-10-23T17:33:12.944Z,3.00
2023-10-23T17:38:15.779Z,2.50
2023-10-23T17:43:18.913Z,2.80
2023-10-23T17:48:22.040Z,3.20
2023-10-23T17:53:25.628Z,2.43
2023-10-23T17:58:28.974Z,3.13
2023-10-23T18:03:32.135Z,3.07
2023-10-23T18:08:36.043Z,3.30
2023-10-23T18:13:40.094Z,3.38
2023-10-23T18:18:43.115Z,3.60
2023-10-23T18:23:46.121Z,3.35
2023-10-23T18:28:49.275Z,4.00
2023-10-23T18:33:52.969Z,3.33
2023-10-23T18:38:56.217Z,3.47
2023-10-23T18:44:00.754Z,3.40
2023-10-23T18:49:05.899Z,4.22
2023-10-23T18:54:09.375Z,4.10
2023-10-23T18:59:15.408Z,3.97
2023-10-23T19:04:18.934Z,3.85
2023-10-23T19:09:21.996Z,4.23
2023-10-23T19:14:25.044Z,3.90
2023-10-23T19:19:27.911Z,4.00
2023-10-23T19:24:30.797Z,4.90
2023-10-23T19:29:33.563Z,4.38
2023-10-23T19:34:36.639Z,4.90
2023-10-23T19:39:39.909Z,4.90
2023-10-23T19:44:43.538Z,5.53
2023-10-23T19:49:46.717Z,4.88
2023-10-23T19:54:50.373Z,5.60
2023-10-23T19:59:53.951Z,4.97
2023-10-23T20:04:56.999Z,6.90
2023-10-23T20:10:00.384Z,6.50
2023-10-23T20:15:03.836Z,6.60
2023-10-23T20:20:07.821Z,5.95
2023-10-23T20:25:10.780Z,7.23
2023-10-23T20:30:14.791Z,7.60
2023-10-23T20:35:17.875Z,6.83
2023-10-23T20:40:20.923Z,6.95
2023-10-23T20:45:23.749Z,7.95
2023-10-23T20:50:27.231Z,6.67
2023-10-23T20:55:30.023Z,7.80
2023-10-23T21:00:32.886Z,7.50
2023-10-23T21:05:38.813Z,7.80
2023-10-23T21:10:41.689Z,9.30
2023-10-23T21:15:44.854Z,10.60
2023-10-23T21:20:47.823Z,8.30
2023-10-23T21:25:53.510Z,8.60
2023-10-23T21:30:56.580Z,8.60
2023-10-23T21:35:59.496Z,8.48
2023-10-23T21:41:04.551Z,8.13
2023-10-23T21:46:16.061Z,7.55
2023-10-23T21:51:20.259Z,8.40
2023-10-23T21:57:15.270Z,9.73
2023-10-23T22:01:48.550Z,7.80
2023-10-23T22:06:52.641Z,7.63
2023-10-23T22:11:56.078Z,8.68
2023-10-23T22:16:58.966Z,8.00
2023-10-23T22:22:02.626Z,8.23
2023-10-23T22:27:05.621Z,8.65
2023-10-23T22:32:08.285Z,7.63
2023-10-23T22:37:59.638Z,8.05
2023-10-23T22:42:33.617Z,7.87
2023-10-23T22:47:36.889Z,8.80
2023-10-23T22:52:41.226Z,8.52
2023-10-23T22:57:46.498Z,8.40
2023-10-23T23:02:49.719Z,9.18
2023-10-23T23:07:56.139Z,9.20
2023-10-23T23:12:59.103Z,8.18
2023-10-23T23:18:06.662Z,9.10
2023-10-23T23:23:09.912Z,7.27
2023-10-23T23:28:12.635Z,8.20
2023-10-23T23:33:15.434Z,7.83
2023-10-23T23:38:18.161Z,9.18
2023-10-23T23:43:21.435Z,10.27
2023-10-23T23:48:24.795Z,8.30
2023-10-23T23:53:27.990Z,8.68
2023-10-23T23:58:30.867Z,7.13
